sensor_id;sensor_type;location;lat;lon;timestamp;pressure;altitude;pressure_sealevel;temperature;humidity
31121;BME280;17770;45.966;13.632;2022-12-07T00:01:32;100310.66;;;14.50;59.94
31121;BME280;17770;45.966;13.632;2022-12-07T00:03:59;100310.59;;;14.51;59.83
31121;BME280;17770;45.966;13.632;2022-12-07T00:06:35;100305.47;;;14.50;60.06
31121;BME280;17770;45.966;13.632;2022-12-07T00:09:01;100305.53;;;14.48;60.12
31121;BME280;17770;45.966;13.632;2022-12-07T00:11:27;100301.19;;;14.49;60.28
31121;BME280;17770;45.966;13.632;2022-12-07T00:13:54;100306.41;;;14.49;60.07
31121;BME280;17770;45.966;13.632;2022-12-07T00:16:20;100298.69;;;14.47;60.08
31121;BME280;17770;45.966;13.632;2022-12-07T00:18:47;100303.88;;;14.47;60.11
31121;BME280;17770;45.966;13.632;2022-12-07T00:21:14;100302.13;;;14.48;59.97
31121;BME280;17770;45.966;13.632;2022-12-07T00:23:40;100298.69;;;14.47;60.00
31121;BME280;17770;45.966;13.632;2022-12-07T00:26:07;100297.75;;;14.48;59.96
31121;BME280;17770;45.966;13.632;2022-12-07T00:28:34;100292.63;;;14.47;60.11
31121;BME280;17770;45.966;13.632;2022-12-07T00:31:02;100297.84;;;14.47;59.94
31121;BME280;17770;45.966;13.632;2022-12-07T00:33:28;100301.34;;;14.46;59.92
31121;BME280;17770;45.966;13.632;2022-12-07T00:35:55;100297.84;;;14.47;60.12
31121;BME280;17770;45.966;13.632;2022-12-07T00:38:21;100303.03;;;14.47;60.03
31121;BME280;17770;45.966;13.632;2022-12-07T00:40:53;100293.56;;;14.46;59.88
31121;BME280;17770;45.966;13.632;2022-12-07T00:43:19;100298.75;;;14.46;60.02
31121;BME280;17770;45.966;13.632;2022-12-07T00:45:45;100290.97;;;14.46;59.83
31121;BME280;17770;45.966;13.632;2022-12-07T00:48:11;100294.41;;;14.46;59.91
31121;BME280;17770;45.966;13.632;2022-12-07T00:50:36;100291.88;;;14.45;60.05
31121;BME280;17770;45.966;13.632;2022-12-07T00:53:02;100289.28;;;14.45;60.00
31121;BME280;17770;45.966;13.632;2022-12-07T00:55:32;100288.44;;;14.44;59.97
31121;BME280;17770;45.966;13.632;2022-12-07T00:57:58;100288.44;;;14.44;59.95
31121;BME280;17770;45.966;13.632;2022-12-07T01:00:24;100290.13;;;14.45;59.91
31121;BME280;17770;45.966;13.632;2022-12-07T01:02:49;100290.19;;;14.44;59.83
31121;BME280;17770;45.966;13.632;2022-12-07T01:05:15;100294.53;;;14.43;59.89
31121;BME280;17770;45.966;13.632;2022-12-07T01:07:41;100297.13;;;14.43;59.95
31121;BME280;17770;45.966;13.632;2022-12-07T01:10:07;100294.53;;;14.43;59.93
31121;BME280;17770;45.966;13.632;2022-12-07T01:12:33;100297.13;;;14.43;59.94
31121;BME280;17770;45.966;13.632;2022-12-07T01:14:59;100298.91;;;14.43;60.11
31121;BME280;17770;45.966;13.632;2022-12-07T01:17:25;100302.38;;;14.42;59.84
31121;BME280;17770;45.966;13.632;2022-12-07T01:19:51;100297.19;;;14.42;60.06
31121;BME280;17770;45.966;13.632;2022-12-07T01:22:17;100299.78;;;14.42;59.89
31121;BME280;17770;45.966;13.632;2022-12-07T01:24:42;100294.59;;;14.42;59.80
31121;BME280;17770;45.966;13.632;2022-12-07T01:27:08;100288.59;;;14.41;60.08
31121;BME280;17770;45.966;13.632;2022-12-07T01:29:35;100294.59;;;14.42;59.80
31121;BME280;17770;45.966;13.632;2022-12-07T01:32:01;100292.94;;;14.41;59.76
31121;BME280;17770;45.966;13.632;2022-12-07T01:34:27;100291.19;;;14.41;59.97
31121;BME280;17770;45.966;13.632;2022-12-07T01:36:52;100284.31;;;14.40;59.96
31121;BME280;17770;45.966;13.632;2022-12-07T01:39:18;100290.34;;;14.41;60.03
31121;BME280;17770;45.966;13.632;2022-12-07T01:41:44;100290.34;;;14.41;59.83
31121;BME280;17770;45.966;13.632;2022-12-07T01:46:39;100275.66;;;14.39;59.90
31121;BME280;17770;45.966;13.632;2022-12-07T01:49:06;100284.38;;;14.38;59.90
31121;BME280;17770;45.966;13.632;2022-12-07T01:51:33;100278.34;;;14.38;59.95
31121;BME280;17770;45.966;13.632;2022-12-07T01:53:59;100271.47;;;14.37;59.65
31121;BME280;17770;45.966;13.632;2022-12-07T01:56:26;100269.72;;;14.38;59.84
31121;BME280;17770;45.966;13.632;2022-12-07T01:58:52;100272.34;;;14.38;59.99
31121;BME280;17770;45.966;13.632;2022-12-07T02:01:20;100267.97;;;14.38;60.08
31121;BME280;17770;45.966;13.632;2022-12-07T02:03:46;100269.72;;;14.38;59.88
31121;BME280;17770;45.966;13.632;2022-12-07T02:06:14;100269.72;;;14.38;59.77
31121;BME280;17770;45.966;13.632;2022-12-07T02:08:42;100271.47;;;14.37;59.82
31121;BME280;17770;45.966;13.632;2022-12-07T02:11:08;100265.44;;;14.36;59.88
31121;BME280;17770;45.966;13.632;2022-12-07T02:13:35;100270.63;;;14.36;59.51
31121;BME280;17770;45.966;13.632;2022-12-07T02:21:45;100266.38;;;14.35;59.88
31121;BME280;17770;45.966;13.632;2022-12-07T02:26:47;100254.25;;;14.36;59.98
31121;BME280;17770;45.966;13.632;2022-12-07T02:34:37;100258.66;;;14.34;59.76
31121;BME280;17770;45.966;13.632;2022-12-07T02:37:19;100245.69;;;14.34;59.81
31121;BME280;17770;45.966;13.632;2022-12-07T02:39:57;100248.28;;;14.34;60.04
31121;BME280;17770;45.966;13.632;2022-12-07T02:42:28;100247.44;;;14.33;59.84
31121;BME280;17770;45.966;13.632;2022-12-07T02:44:56;100245.69;;;14.34;59.69
31121;BME280;17770;45.966;13.632;2022-12-07T02:47:22;100243.16;;;14.32;59.81
31121;BME280;17770;45.966;13.632;2022-12-07T02:49:50;100247.44;;;14.33;59.67
31121;BME280;17770;45.966;13.632;2022-12-07T02:52:16;100238.78;;;14.33;59.73
31121;BME280;17770;45.966;13.632;2022-12-07T02:54:42;100243.09;;;14.34;59.82
31121;BME280;17770;45.966;13.632;2022-12-07T02:57:21;100239.66;;;14.33;59.73
31121;BME280;17770;45.966;13.632;2022-12-07T03:02:55;100229.34;;;14.32;59.68
31121;BME280;17770;45.966;13.632;2022-12-07T03:10:29;100221.56;;;14.32;59.90
31121;BME280;17770;45.966;13.632;2022-12-07T03:18:24;100208.66;;;14.30;59.64
31121;BME280;17770;45.966;13.632;2022-12-07T03:20:51;100206.06;;;14.30;59.87
31121;BME280;17770;45.966;13.632;2022-12-07T03:23:19;100200.88;;;14.30;59.84
31121;BME280;17770;45.966;13.632;2022-12-07T03:25:47;100212.19;;;14.29;59.96
31121;BME280;17770;45.966;13.632;2022-12-07T03:28:15;100207.00;;;14.29;59.84
31121;BME280;17770;45.966;13.632;2022-12-07T03:30:49;100207.00;;;14.29;59.71
31121;BME280;17770;45.966;13.632;2022-12-07T03:33:24;100202.72;;;14.28;59.66
31121;BME280;17770;45.966;13.632;2022-12-07T03:35:57;100203.56;;;14.29;59.76
31121;BME280;17770;45.966;13.632;2022-12-07T03:38:31;100196.63;;;14.29;59.57
31121;BME280;17770;45.966;13.632;2022-12-07T03:41:00;100206.16;;;14.29;59.81
31121;BME280;17770;45.966;13.632;2022-12-07T03:43:30;100202.72;;;14.28;59.92
31121;BME280;17770;45.966;13.632;2022-12-07T03:48:45;100204.41;;;14.29;59.91
31121;BME280;17770;45.966;13.632;2022-12-07T03:51:20;100201.03;;;14.27;59.73
31121;BME280;17770;45.966;13.632;2022-12-07T03:53:51;100201.03;;;14.27;59.91
31121;BME280;17770;45.966;13.632;2022-12-07T03:56:19;100199.34;;;14.26;59.88
31121;BME280;17770;45.966;13.632;2022-12-07T03:58:46;100201.84;;;14.28;59.84
31121;BME280;17770;45.966;13.632;2022-12-07T04:01:12;100194.16;;;14.26;59.68
31121;BME280;17770;45.966;13.632;2022-12-07T04:03:38;100195.84;;;14.27;59.70
31121;BME280;17770;45.966;13.632;2022-12-07T04:06:04;100200.19;;;14.27;60.19
31121;BME280;17770;45.966;13.632;2022-12-07T04:08:30;100195.94;;;14.26;59.68
31121;BME280;17770;45.966;13.632;2022-12-07T04:10:56;100188.97;;;14.26;59.85
31121;BME280;17770;45.966;13.632;2022-12-07T04:13:22;100189.03;;;14.25;59.80
31121;BME280;17770;45.966;13.632;2022-12-07T04:15:48;100190.72;;;14.26;59.83
31121;BME280;17770;45.966;13.632;2022-12-07T04:18:14;100189.88;;;14.25;59.82
31121;BME280;17770;45.966;13.632;2022-12-07T04:20:40;100180.38;;;14.26;59.66
31121;BME280;17770;45.966;13.632;2022-12-07T04:23:06;100189.88;;;14.25;59.86
31121;BME280;17770;45.966;13.632;2022-12-07T04:25:32;100189.06;;;14.23;60.01
31121;BME280;17770;45.966;13.632;2022-12-07T04:27:58;100188.19;;;14.24;59.69
31121;BME280;17770;45.966;13.632;2022-12-07T04:30:24;100188.19;;;14.24;59.97
31121;BME280;17770;45.966;13.632;2022-12-07T04:32:50;100182.09;;;14.25;59.68
31121;BME280;17770;45.966;13.632;2022-12-07T04:35:15;100182.16;;;14.24;59.73
31121;BME280;17770;45.966;13.632;2022-12-07T04:37:41;100179.56;;;14.24;59.73
31121;BME280;17770;45.966;13.632;2022-12-07T04:40:08;100172.66;;;14.23;59.88
31121;BME280;17770;45.966;13.632;2022-12-07T04:42:36;100182.22;;;14.22;59.66
31121;BME280;17770;45.966;13.632;2022-12-07T04:45:03;100187.41;;;14.22;59.60
31121;BME280;17770;45.966;13.632;2022-12-07T04:47:29;100193.41;;;14.23;59.77
31121;BME280;17770;45.966;13.632;2022-12-07T04:49:54;100195.13;;;14.24;59.71
31121;BME280;17770;45.966;13.632;2022-12-07T04:52:20;100200.38;;;14.22;59.78
31121;BME280;17770;45.966;13.632;2022-12-07T04:54:46;100202.03;;;14.23;59.78
31121;BME280;17770;45.966;13.632;2022-12-07T04:57:12;100199.53;;;14.22;59.68
31121;BME280;17770;45.966;13.632;2022-12-07T04:59:38;100196.94;;;14.22;59.94
31121;BME280;17770;45.966;13.632;2022-12-07T05:02:04;100197.78;;;14.22;59.78
31121;BME280;17770;45.966;13.632;2022-12-07T05:04:29;100191.75;;;14.22;59.54
31121;BME280;17770;45.966;13.632;2022-12-07T05:06:55;100194.34;;;14.22;59.54
31121;BME280;17770;45.966;13.632;2022-12-07T05:09:21;100180.53;;;14.21;59.51
31121;BME280;17770;45.966;13.632;2022-12-07T05:11:47;100190.91;;;14.21;59.84
31121;BME280;17770;45.966;13.632;2022-12-07T05:14:17;100185.72;;;14.21;59.72
31121;BME280;17770;45.966;13.632;2022-12-07T05:16:43;100177.13;;;14.21;59.79
31121;BME280;17770;45.966;13.632;2022-12-07T05:19:10;100193.56;;;14.20;59.56
31121;BME280;17770;45.966;13.632;2022-12-07T05:21:36;100189.22;;;14.20;59.61
31121;BME280;17770;45.966;13.632;2022-12-07T05:24:02;100184.97;;;14.19;59.55
31121;BME280;17770;45.966;13.632;2022-12-07T05:26:28;100194.41;;;14.20;59.73
31121;BME280;17770;45.966;13.632;2022-12-07T05:28:55;100197.09;;;14.19;59.74
31121;BME280;17770;45.966;13.632;2022-12-07T05:31:21;100190.22;;;14.18;59.77
31121;BME280;17770;45.966;13.632;2022-12-07T05:33:47;100193.63;;;14.18;59.74
31121;BME280;17770;45.966;13.632;2022-12-07T05:36:13;100185.84;;;14.18;59.76
31121;BME280;17770;45.966;13.632;2022-12-07T05:38:39;100187.63;;;14.18;59.59
31121;BME280;17770;45.966;13.632;2022-12-07T05:41:06;100186.78;;;14.17;59.79
31121;BME280;17770;45.966;13.632;2022-12-07T05:43:32;100189.38;;;14.17;59.74
31121;BME280;17770;45.966;13.632;2022-12-07T05:45:58;100185.03;;;14.18;59.72
31121;BME280;17770;45.966;13.632;2022-12-07T05:48:25;100186.78;;;14.17;59.85
31121;BME280;17770;45.966;13.632;2022-12-07T05:50:51;100184.19;;;14.17;59.76
31121;BME280;17770;45.966;13.632;2022-12-07T05:53:17;100188.59;;;14.15;59.93
31121;BME280;17770;45.966;13.632;2022-12-07T05:55:43;100194.63;;;14.16;59.84
31121;BME280;17770;45.966;13.632;2022-12-07T05:58:09;100186.84;;;14.16;59.66
31121;BME280;17770;45.966;13.632;2022-12-07T06:00:54;100199.75;;;14.17;59.67
31121;BME280;17770;45.966;13.632;2022-12-07T06:03:20;100192.13;;;14.14;59.33
31121;BME280;17770;45.966;13.632;2022-12-07T06:05:46;100193.88;;;14.14;59.65
31121;BME280;17770;45.966;13.632;2022-12-07T06:08:12;100197.31;;;14.14;59.39
31121;BME280;17770;45.966;13.632;2022-12-07T06:10:40;100195.53;;;14.15;59.76
31121;BME280;17770;45.966;13.632;2022-12-07T06:13:07;100194.72;;;14.14;59.53
31121;BME280;17770;45.966;13.632;2022-12-07T06:15:35;100192.13;;;14.14;59.66
31121;BME280;17770;45.966;13.632;2022-12-07T06:18:01;100197.31;;;14.14;59.23
31121;BME280;17770;45.966;13.632;2022-12-07T06:20:27;100200.78;;;14.13;59.53
31121;BME280;17770;45.966;13.632;2022-12-07T06:22:53;100204.31;;;14.12;59.62
31121;BME280;17770;45.966;13.632;2022-12-07T06:25:18;100200.78;;;14.13;59.63
31121;BME280;17770;45.966;13.632;2022-12-07T06:27:44;100198.28;;;14.12;59.69
31121;BME280;17770;45.966;13.632;2022-12-07T06:30:10;100204.31;;;14.12;59.82
31121;BME280;17770;45.966;13.632;2022-12-07T06:32:36;100199.13;;;14.12;59.20
31121;BME280;17770;45.966;13.632;2022-12-07T06:35:02;100205.19;;;14.11;59.62
31121;BME280;17770;45.966;13.632;2022-12-07T06:37:28;100201.78;;;14.11;59.67
31121;BME280;17770;45.966;13.632;2022-12-07T06:39:54;100204.38;;;14.11;59.71
31121;BME280;17770;45.966;13.632;2022-12-07T06:42:20;100203.53;;;14.10;59.60
31121;BME280;17770;45.966;13.632;2022-12-07T06:44:46;100199.28;;;14.09;59.67
31121;BME280;17770;45.966;13.632;2022-12-07T06:47:12;100206.19;;;14.09;59.53
31121;BME280;17770;45.966;13.632;2022-12-07T06:49:38;100200.16;;;14.08;59.55
31121;BME280;17770;45.966;13.632;2022-12-07T06:52:04;100207.06;;;14.09;59.80
31121;BME280;17770;45.966;13.632;2022-12-07T06:54:31;100207.13;;;14.08;59.89
31121;BME280;17770;45.966;13.632;2022-12-07T06:56:57;100211.31;;;14.10;59.63
31121;BME280;17770;45.966;13.632;2022-12-07T06:59:22;100208.78;;;14.09;59.82
31121;BME280;17770;45.966;13.632;2022-12-07T07:01:48;100211.38;;;14.09;59.41
31121;BME280;17770;45.966;13.632;2022-12-07T07:04:14;100207.94;;;14.08;59.64
31121;BME280;17770;45.966;13.632;2022-12-07T07:06:40;100206.28;;;14.07;59.86
31121;BME280;17770;45.966;13.632;2022-12-07T07:09:06;100209.72;;;14.08;59.55
31121;BME280;17770;45.966;13.632;2022-12-07T07:11:32;100208.88;;;14.07;59.69
31121;BME280;17770;45.966;13.632;2022-12-07T07:13:58;100216.66;;;14.07;59.56
31121;BME280;17770;45.966;13.632;2022-12-07T07:16:28;100214.06;;;14.07;59.67
31121;BME280;17770;45.966;13.632;2022-12-07T07:18:55;100207.13;;;14.08;59.86
31121;BME280;17770;45.966;13.632;2022-12-07T07:21:21;100210.59;;;14.07;59.62
31121;BME280;17770;45.966;13.632;2022-12-07T07:23:47;100214.13;;;14.06;59.53
31121;BME280;17770;45.966;13.632;2022-12-07T07:26:13;100219.31;;;14.06;59.73
31121;BME280;17770;45.966;13.632;2022-12-07T07:28:39;100214.97;;;14.06;59.12
31121;BME280;17770;45.966;13.632;2022-12-07T07:31:05;100212.44;;;14.05;59.74
31121;BME280;17770;45.966;13.632;2022-12-07T07:33:30;100215.94;;;14.04;59.47
31121;BME280;17770;45.966;13.632;2022-12-07T07:35:56;100224.56;;;14.04;59.58
31121;BME280;17770;45.966;13.632;2022-12-07T07:38:22;100224.56;;;14.04;59.34
31121;BME280;17770;45.966;13.632;2022-12-07T07:40:48;100219.38;;;14.04;59.70
31121;BME280;17770;45.966;13.632;2022-12-07T07:43:14;100221.13;;;14.04;59.54
31121;BME280;17770;45.966;13.632;2022-12-07T07:45:40;100230.66;;;14.03;59.56
31121;BME280;17770;45.966;13.632;2022-12-07T07:48:06;100232.34;;;14.04;59.60
31121;BME280;17770;45.966;13.632;2022-12-07T07:50:32;100227.16;;;14.04;59.67
31121;BME280;17770;45.966;13.632;2022-12-07T07:52:57;100232.34;;;14.04;59.45
31121;BME280;17770;45.966;13.632;2022-12-07T07:55:23;100237.53;;;14.04;59.53
31121;BME280;17770;45.966;13.632;2022-12-07T07:57:49;100240.19;;;14.03;59.68
31121;BME280;17770;45.966;13.632;2022-12-07T08:00:15;100240.19;;;14.03;59.57
31121;BME280;17770;45.966;13.632;2022-12-07T08:02:42;100235.91;;;14.02;59.63
31121;BME280;17770;45.966;13.632;2022-12-07T08:05:11;100240.19;;;14.03;59.44
31121;BME280;17770;45.966;13.632;2022-12-07T08:07:38;100235.00;;;14.03;59.65
31121;BME280;17770;45.966;13.632;2022-12-07T08:10:04;100234.16;;;14.02;59.54
31121;BME280;17770;45.966;13.632;2022-12-07T08:12:30;100222.13;;;14.01;59.49
31121;BME280;17770;45.966;13.632;2022-12-07T08:14:55;100234.16;;;14.02;59.71
31121;BME280;17770;45.966;13.632;2022-12-07T08:17:21;100234.25;;;14.01;59.70
31121;BME280;17770;45.966;13.632;2022-12-07T08:19:47;100230.72;;;14.02;59.54
31121;BME280;17770;45.966;13.632;2022-12-07T08:22:13;100237.69;;;14.01;59.34
31121;BME280;17770;45.966;13.632;2022-12-07T08:31:23;100240.28;;;14.01;59.47
31121;BME280;17770;45.966;13.632;2022-12-07T08:33:49;100237.69;;;14.01;59.74
31121;BME280;17770;45.966;13.632;2022-12-07T08:36:16;100246.34;;;14.00;59.64
31121;BME280;17770;45.966;13.632;2022-12-07T08:38:42;100254.06;;;14.02;58.98
31121;BME280;17770;45.966;13.632;2022-12-07T08:41:08;100248.94;;;14.00;59.40
31121;BME280;17770;45.966;13.632;2022-12-07T08:43:34;100249.00;;;13.99;59.01
31121;BME280;17770;45.966;13.632;2022-12-07T08:46:05;100255.88;;;14.00;59.39
31121;BME280;17770;45.966;13.632;2022-12-07T08:48:32;100255.06;;;13.99;59.12
31121;BME280;17770;45.966;13.632;2022-12-07T08:50:58;100254.97;;;14.01;59.63
31121;BME280;17770;45.966;13.632;2022-12-07T08:53:24;100250.69;;;14.00;59.28
31121;BME280;17770;45.966;13.632;2022-12-07T08:55:50;100256.72;;;14.00;59.36
31121;BME280;17770;45.966;13.632;2022-12-07T08:58:16;100260.22;;;13.99;59.29
31121;BME280;17770;45.966;13.632;2022-12-07T09:00:42;100255.06;;;13.99;59.36
31121;BME280;17770;45.966;13.632;2022-12-07T09:03:08;100262.81;;;13.99;59.63
31121;BME280;17770;45.966;13.632;2022-12-07T09:05:33;100259.38;;;13.99;59.42
31121;BME280;17770;45.966;13.632;2022-12-07T09:08:00;100268.84;;;14.00;59.36
31121;BME280;17770;45.966;13.632;2022-12-07T09:10:27;100268.91;;;13.98;59.38
31121;BME280;17770;45.966;13.632;2022-12-07T09:12:52;100272.34;;;13.99;59.31
31121;BME280;17770;45.966;13.632;2022-12-07T09:15:18;100270.69;;;13.98;59.46
31121;BME280;17770;45.966;13.632;2022-12-07T09:17:44;100261.06;;;14.00;58.89
31121;BME280;17770;45.966;13.632;2022-12-07T09:20:10;100264.56;;;13.99;59.43
31121;BME280;17770;45.966;13.632;2022-12-07T09:22:37;100266.25;;;14.00;59.51
31121;BME280;17770;45.966;13.632;2022-12-07T09:25:03;100258.53;;;13.98;59.35
31121;BME280;17770;45.966;13.632;2022-12-07T09:27:29;100262.81;;;13.99;59.32
31121;BME280;17770;45.966;13.632;2022-12-07T09:29:55;100258.53;;;13.98;59.33
31121;BME280;17770;45.966;13.632;2022-12-07T09:32:21;100264.78;;;13.94;58.89
31121;BME280;17770;45.966;13.632;2022-12-07T09:34:47;100264.63;;;13.97;59.42
31121;BME280;17770;45.966;13.632;2022-12-07T09:37:13;100262.91;;;13.98;58.94
31121;BME280;17770;45.966;13.632;2022-12-07T09:39:39;100271.50;;;13.98;59.29
31121;BME280;17770;45.966;13.632;2022-12-07T09:42:05;100254.28;;;13.97;59.25
31121;BME280;17770;45.966;13.632;2022-12-07T09:44:32;100260.22;;;13.99;59.64
31121;BME280;17770;45.966;13.632;2022-12-07T09:46:59;100259.47;;;13.97;59.64
31121;BME280;17770;45.966;13.632;2022-12-07T09:49:25;100253.34;;;13.98;59.41
31121;BME280;17770;45.966;13.632;2022-12-07T09:54:39;100252.47;;;13.99;59.33
31121;BME280;17770;45.966;13.632;2022-12-07T09:57:07;100246.41;;;13.99;59.46
31121;BME280;17770;45.966;13.632;2022-12-07T09:59:34;100244.75;;;13.98;59.35
31121;BME280;17770;45.966;13.632;2022-12-07T10:02:16;100252.53;;;13.98;59.25
31121;BME280;17770;45.966;13.632;2022-12-07T10:04:42;100249.09;;;13.97;59.20
31121;BME280;17770;45.966;13.632;2022-12-07T10:07:09;100245.63;;;13.97;59.17
31121;BME280;17770;45.966;13.632;2022-12-07T10:09:35;100250.75;;;13.98;59.47
31121;BME280;17770;45.966;13.632;2022-12-07T10:12:03;100249.00;;;13.99;59.61
31121;BME280;17770;45.966;13.632;2022-12-07T10:14:31;100246.50;;;13.97;59.50
31121;BME280;17770;45.966;13.632;2022-12-07T10:16:58;100235.19;;;13.98;59.42
31121;BME280;17770;45.966;13.632;2022-12-07T10:19:30;100236.06;;;13.99;59.10
31121;BME280;17770;45.966;13.632;2022-12-07T10:22:04;100242.16;;;13.98;59.13
31121;BME280;17770;45.966;13.632;2022-12-07T10:24:31;100240.47;;;13.97;59.71
31121;BME280;17770;45.966;13.632;2022-12-07T10:26:57;100234.44;;;13.96;59.67
31121;BME280;17770;45.966;13.632;2022-12-07T10:31:59;100230.94;;;13.97;59.49
31121;BME280;17770;45.966;13.632;2022-12-07T10:36:52;100225.75;;;13.97;59.32
31121;BME280;17770;45.966;13.632;2022-12-07T10:39:19;100219.72;;;13.97;59.59
31121;BME280;17770;45.966;13.632;2022-12-07T10:41:55;100214.53;;;13.97;59.32
31121;BME280;17770;45.966;13.632;2022-12-07T10:44:40;100217.97;;;13.97;59.19
31121;BME280;17770;45.966;13.632;2022-12-07T10:52:40;100203.28;;;13.98;59.40
31121;BME280;17770;45.966;13.632;2022-12-07T11:00:18;100192.06;;;13.97;59.35
31121;BME280;17770;45.966;13.632;2022-12-07T11:02:54;100196.31;;;13.98;59.66
31121;BME280;17770;45.966;13.632;2022-12-07T11:15:51;100183.34;;;13.98;59.79
31121;BME280;17770;45.966;13.632;2022-12-07T11:31:24;100166.91;;;13.99;59.80
31121;BME280;17770;45.966;13.632;2022-12-07T11:38:50;100158.19;;;14.00;59.68
31121;BME280;17770;45.966;13.632;2022-12-07T11:41:20;100155.59;;;14.00;59.40
31121;BME280;17770;45.966;13.632;2022-12-07T11:46:17;100144.34;;;14.01;59.46
31121;BME280;17770;45.966;13.632;2022-12-07T11:51:12;100138.31;;;14.01;59.41
31121;BME280;17770;45.966;13.632;2022-12-07T11:53:43;100146.09;;;14.01;59.63
31121;BME280;17770;45.966;13.632;2022-12-07T12:01:26;100135.72;;;14.01;59.50
31121;BME280;17770;45.966;13.632;2022-12-07T12:03:52;100124.50;;;14.00;59.63
31121;BME280;17770;45.966;13.632;2022-12-07T12:06:19;100121.00;;;14.01;59.79
31121;BME280;17770;45.966;13.632;2022-12-07T12:08:50;100121.81;;;14.02;59.49
31121;BME280;17770;45.966;13.632;2022-12-07T12:16:41;100122.69;;;14.02;59.89
31121;BME280;17770;45.966;13.632;2022-12-07T12:19:18;100120.94;;;14.03;59.47
31121;BME280;17770;45.966;13.632;2022-12-07T12:21:47;100121.00;;;14.01;59.83
31121;BME280;17770;45.966;13.632;2022-12-07T12:24:15;100123.53;;;14.03;59.79
31121;BME280;17770;45.966;13.632;2022-12-07T12:26:50;100118.34;;;14.03;59.61
31121;BME280;17770;45.966;13.632;2022-12-07T12:29:33;100120.09;;;14.02;59.72
31121;BME280;17770;45.966;13.632;2022-12-07T12:32:20;100125.19;;;14.04;59.72
31121;BME280;17770;45.966;13.632;2022-12-07T12:37:38;100126.03;;;14.04;59.60
31121;BME280;17770;45.966;13.632;2022-12-07T12:42:47;100125.13;;;14.05;59.95
31121;BME280;17770;45.966;13.632;2022-12-07T12:45:20;100120.72;;;14.07;59.76
31121;BME280;17770;45.966;13.632;2022-12-07T12:50:23;100112.84;;;14.09;59.87
31121;BME280;17770;45.966;13.632;2022-12-07T12:55:20;100114.59;;;14.08;60.20
31121;BME280;17770;45.966;13.632;2022-12-07T12:57:52;100115.44;;;14.09;60.28
31121;BME280;17770;45.966;13.632;2022-12-07T13:00:33;100111.09;;;14.09;59.92
31121;BME280;17770;45.966;13.632;2022-12-07T13:02:59;100111.09;;;14.09;60.13
31121;BME280;17770;45.966;13.632;2022-12-07T13:05:29;100115.44;;;14.09;59.86
31121;BME280;17770;45.966;13.632;2022-12-07T13:10:40;100111.03;;;14.11;59.95
31121;BME280;17770;45.966;13.632;2022-12-07T13:15:43;100099.81;;;14.10;60.05
31121;BME280;17770;45.966;13.632;2022-12-07T13:20:54;100103.25;;;14.11;60.25
31121;BME280;17770;45.966;13.632;2022-12-07T13:24:07;100099.72;;;14.12;59.98
31121;BME280;17770;45.966;13.632;2022-12-07T13:28:43;100097.16;;;14.12;59.92
31121;BME280;17770;45.966;13.632;2022-12-07T13:33:53;100091.06;;;14.13;59.76
31121;BME280;17770;45.966;13.632;2022-12-07T13:38:50;100097.06;;;14.13;60.13
31121;BME280;17770;45.966;13.632;2022-12-07T13:41:17;100091.88;;;14.13;59.80
31121;BME280;17770;45.966;13.632;2022-12-07T13:44:08;100097.06;;;14.13;59.71
31121;BME280;17770;45.966;13.632;2022-12-07T13:51:43;100109.88;;;14.16;59.96
31121;BME280;17770;45.966;13.632;2022-12-07T13:54:10;100101.22;;;14.17;59.72
31121;BME280;17770;45.966;13.632;2022-12-07T13:56:36;100101.22;;;14.17;59.94
31121;BME280;17770;45.966;13.632;2022-12-07T13:59:02;100106.31;;;14.19;60.20
31121;BME280;17770;45.966;13.632;2022-12-07T14:01:30;100109.75;;;14.19;60.09
31121;BME280;17770;45.966;13.632;2022-12-07T14:04:15;100112.34;;;14.19;60.41
31121;BME280;17770;45.966;13.632;2022-12-07T14:06:49;100101.97;;;14.19;60.05
31121;BME280;17770;45.966;13.632;2022-12-07T14:09:22;100108.84;;;14.20;60.02
31121;BME280;17770;45.966;13.632;2022-12-07T14:11:48;100117.47;;;14.21;59.79
31121;BME280;17770;45.966;13.632;2022-12-07T14:14:19;100106.16;;;14.22;60.16
31121;BME280;17770;45.966;13.632;2022-12-07T14:16:54;100100.97;;;14.22;60.04
31121;BME280;17770;45.966;13.632;2022-12-07T14:22:07;100105.22;;;14.23;59.99
31121;BME280;17770;45.966;13.632;2022-12-07T14:24:41;100102.66;;;14.23;60.03
31121;BME280;17770;45.966;13.632;2022-12-07T14:27:15;100114.78;;;14.22;59.59
31121;BME280;17770;45.966;13.632;2022-12-07T14:29:42;100110.38;;;14.24;59.88
31121;BME280;17770;45.966;13.632;2022-12-07T14:32:29;100112.97;;;14.24;59.88
31121;BME280;17770;45.966;13.632;2022-12-07T14:37:23;100117.25;;;14.25;59.97
31121;BME280;17770;45.966;13.632;2022-12-07T14:39:49;100118.16;;;14.24;59.62
31121;BME280;17770;45.966;13.632;2022-12-07T14:42:15;100124.19;;;14.25;60.13
31121;BME280;17770;45.966;13.632;2022-12-07T14:44:41;100125.94;;;14.24;60.08
31121;BME280;17770;45.966;13.632;2022-12-07T14:47:10;100135.41;;;14.25;60.07
31121;BME280;17770;45.966;13.632;2022-12-07T14:49:36;100138.88;;;14.26;60.07
31121;BME280;17770;45.966;13.632;2022-12-07T14:52:02;100133.69;;;14.26;59.94
31121;BME280;17770;45.966;13.632;2022-12-07T14:54:30;100133.69;;;14.26;59.91
31121;BME280;17770;45.966;13.632;2022-12-07T14:56:56;100138.00;;;14.25;59.95
31121;BME280;17770;45.966;13.632;2022-12-07T14:59:22;100138.88;;;14.26;59.97
31121;BME280;17770;45.966;13.632;2022-12-07T15:01:48;100148.38;;;14.25;60.24